createdAt,value
2022-10-17T04:00:34.550Z,94.74
2022-10-17T04:01:34.701Z,94.49
2022-10-17T04:02:34.474Z,94.94
2022-10-17T04:03:34.465Z,94.94
2022-10-17T04:04:34.467Z,94.64
2022-10-17T04:05:34.447Z,95.14
2022-10-17T04:06:34.433Z,94.64
2022-10-17T04:07:34.440Z,94.74
2022-10-17T04:08:34.407Z,94.89
2022-10-17T04:09:34.418Z,94.48
2022-10-17T04:10:34.387Z,94.98
2022-10-17T04:11:39.406Z,94.89
2022-10-17T04:12:34.381Z,94.68
2022-10-17T04:13:34.368Z,94.89
2022-10-17T04:14:34.356Z,94.64
2022-10-17T04:15:34.332Z,95.09
2022-10-17T04:16:34.338Z,95.29
2022-10-17T04:17:37.351Z,95.29
2022-10-17T04:18:34.298Z,94.98
2022-10-17T04:19:34.293Z,95.29
2022-10-17T04:20:34.274Z,95.29
2022-10-17T04:21:34.259Z,95.29
2022-10-17T04:22:39.277Z,95.19
2022-10-17T04:23:34.239Z,95.39
2022-10-17T04:24:34.247Z,95.39
2022-10-17T04:25:36.657Z,95.39
2022-10-17T04:26:34.204Z,95.39
2022-10-17T04:27:34.194Z,95.79
2022-10-17T04:28:34.274Z,95.50
2022-10-17T04:29:34.188Z,95.29
2022-10-17T04:30:34.161Z,95.50
2022-10-17T04:31:34.146Z,95.29
2022-10-17T04:32:34.155Z,96.10
2022-10-17T04:33:39.156Z,96.10
2022-10-17T04:34:34.205Z,96.10
2022-10-17T04:35:34.105Z,96.10
2022-10-17T04:36:34.091Z,96.35
2022-10-17T04:37:34.085Z,96.04
2022-10-17T04:38:34.076Z,96.10
2022-10-17T04:39:34.074Z,95.84
2022-10-17T04:40:34.044Z,96.20
2022-10-17T04:41:34.039Z,96.81
2022-10-17T04:42:34.024Z,96.30
2022-10-17T04:43:34.012Z,96.91
2022-10-17T04:44:39.035Z,97.16
2022-10-17T04:45:33.990Z,96.96
2022-10-17T04:46:33.997Z,96.91
2022-10-17T04:47:33.966Z,96.75
2022-10-17T04:48:33.971Z,97.16
2022-10-17T04:49:34.000Z,96.96
2022-10-17T04:50:33.931Z,97.67
2022-10-17T04:51:33.928Z,97.26
2022-10-17T04:52:33.912Z,97.06
2022-10-17T04:53:33.901Z,97.16
2022-10-17T04:54:33.897Z,97.87
2022-10-17T04:55:38.904Z,97.06
2022-10-17T04:56:33.866Z,97.06
2022-10-17T04:57:33.858Z,97.47
2022-10-17T04:58:33.840Z,97.36
2022-10-17T04:59:33.842Z,97.56
2022-10-17T05:00:33.874Z,97.47
2022-10-17T05:01:33.806Z,97.16
2022-10-17T05:02:33.805Z,97.36
2022-10-17T05:03:33.789Z,97.67
2022-10-17T05:04:34.073Z,97.67
2022-10-17T05:05:33.763Z,97.77
2022-10-17T05:06:38.781Z,97.16
2022-10-17T05:07:33.753Z,97.26
2022-10-17T05:08:33.730Z,97.26
2022-10-17T05:09:33.718Z,97.67
2022-10-17T05:10:33.717Z,97.77
2022-10-17T05:11:33.774Z,97.67
2022-10-17T05:12:33.713Z,97.26
2022-10-17T05:13:33.673Z,97.36
2022-10-17T05:14:33.663Z,96.96
2022-10-17T05:15:33.670Z,97.06
2022-10-17T05:16:33.649Z,97.87
2022-10-17T05:17:38.646Z,97.77
2022-10-17T05:18:33.618Z,97.87
2022-10-17T05:19:33.603Z,97.47
2022-10-17T05:20:33.626Z,97.67
2022-10-17T05:22:37.064Z,97.97
2022-10-17T05:23:34.572Z,97.92
2022-10-17T05:24:33.547Z,97.97
2022-10-17T05:25:33.548Z,97.67
2022-10-17T05:26:33.531Z,97.56
2022-10-17T05:27:33.510Z,97.56
2022-10-17T05:28:38.540Z,97.20
2022-10-17T05:29:33.490Z,96.86
2022-10-17T05:30:36.723Z,97.06
2022-10-17T05:31:33.468Z,97.00
2022-10-17T05:32:33.463Z,97.31
2022-10-17T05:33:33.456Z,96.45
2022-10-17T05:34:33.445Z,96.80
2022-10-17T05:35:33.430Z,96.86
2022-10-17T05:36:33.459Z,97.51
2022-10-17T05:37:33.402Z,97.36
2022-10-17T05:38:33.398Z,97.26
2022-10-17T05:39:38.398Z,96.25
2022-10-17T05:40:33.383Z,96.04
2022-10-17T05:41:33.357Z,96.04
2022-10-17T05:42:33.796Z,96.15
2022-10-17T05:43:33.328Z,95.74
2022-10-17T05:44:33.318Z,96.15
2022-10-17T05:45:33.325Z,95.54
2022-10-17T05:46:33.297Z,95.34
2022-10-17T05:47:33.458Z,95.54
2022-10-17T05:48:33.277Z,96.04
2022-10-17T05:49:45.014Z,96.15
2022-10-17T05:50:39.363Z,95.84
2022-10-17T05:51:33.296Z,95.74
2022-10-17T05:52:33.424Z,95.74
2022-10-17T05:53:33.216Z,95.94
2022-10-17T05:54:33.205Z,95.94
2022-10-17T05:55:33.231Z,95.94
2022-10-17T05:56:33.190Z,96.04
2022-10-17T05:57:33.169Z,96.35
2022-10-17T05:58:49.239Z,96.04
2022-10-17T05:59:34.148Z,95.84
2022-10-17T06:00:33.222Z,95.84
2022-10-17T06:01:38.209Z,96.04
2022-10-17T06:02:33.552Z,95.64
2022-10-17T06:03:33.110Z,96.35
2022-10-17T06:04:33.088Z,96.04
2022-10-17T06:05:33.081Z,96.25
2022-10-17T06:06:33.083Z,96.25
2022-10-17T06:07:33.081Z,96.75
2022-10-17T06:08:33.062Z,96.35
2022-10-17T06:09:33.082Z,96.15
2022-10-17T06:10:33.021Z,96.66
2022-10-17T06:11:33.021Z,96.75
2022-10-17T06:12:38.018Z,96.25
2022-10-17T06:13:33.012Z,96.25
2022-10-17T06:14:32.978Z,96.35
2022-10-17T06:15:32.963Z,95.74
2022-10-17T06:16:32.991Z,95.94
2022-10-17T06:17:32.939Z,95.74
2022-10-17T06:18:32.932Z,96.04
2022-10-17T06:19:32.920Z,95.94
2022-10-17T06:20:32.912Z,96.25
2022-10-17T06:21:32.902Z,95.74
2022-10-17T06:22:32.885Z,95.84
2022-10-17T06:23:37.947Z,96.04
2022-10-17T06:24:32.862Z,96.15
2022-10-17T06:25:32.863Z,96.15
2022-10-17T06:26:32.861Z,95.64
2022-10-17T06:27:32.826Z,95.29
2022-10-17T06:28:32.871Z,95.29
2022-10-17T06:29:32.805Z,95.13
2022-10-17T06:30:32.791Z,94.98
2022-10-17T06:31:32.797Z,95.09
2022-10-17T06:32:32.854Z,94.78
2022-10-17T06:33:32.758Z,94.68
2022-10-17T06:34:37.785Z,95.03
2022-10-17T06:35:32.734Z,95.03
2022-10-17T06:36:32.736Z,95.19
2022-10-17T06:37:35.573Z,95.19
2022-10-17T06:38:32.740Z,95.39
2022-10-17T06:39:32.711Z,95.39
2022-10-17T06:40:32.679Z,95.50
2022-10-17T06:41:32.679Z,95.39
2022-10-17T06:42:32.663Z,95.29
2022-10-17T06:43:32.650Z,95.29
2022-10-17T06:44:32.634Z,95.19
2022-10-17T06:45:37.641Z,95.09
2022-10-17T06:46:32.634Z,95.09
2022-10-17T06:47:32.974Z,94.94
2022-10-17T06:48:32.587Z,94.48
2022-10-17T06:49:32.578Z,94.34
2022-10-17T06:50:32.567Z,94.13
2022-10-17T06:51:32.578Z,94.74
2022-10-17T06:52:32.555Z,94.23
2022-10-17T06:53:32.539Z,94.13
2022-10-17T06:54:32.527Z,94.23
2022-10-17T06:55:32.530Z,94.13
2022-10-17T06:56:37.570Z,93.73
2022-10-17T06:57:32.705Z,93.32
2022-10-17T06:58:32.475Z,93.48
2022-10-17T06:59:32.479Z,92.71
2022-10-17T07:00:32.506Z,92.91
2022-10-17T07:01:32.443Z,92.71
2022-10-17T07:02:32.666Z,92.82
2022-10-17T07:03:32.427Z,92.87
2022-10-17T07:04:32.410Z,93.22
2022-10-17T07:05:32.396Z,92.77
2022-10-17T07:06:32.384Z,92.36
2022-10-17T07:07:40.125Z,92.36
2022-10-17T07:08:33.361Z,92.26
2022-10-17T07:09:32.351Z,92.36
2022-10-17T07:10:32.353Z,92.26
2022-10-17T07:11:32.346Z,92.16
2022-10-17T07:12:32.352Z,92.12
2022-10-17T07:13:36.771Z,91.46
2022-10-17T07:14:33.330Z,91.11
2022-10-17T07:15:32.280Z,90.91
2022-10-17T07:16:32.283Z,91.20
2022-10-17T07:17:32.632Z,91.41
2022-10-17T07:18:37.269Z,92.22
2022-10-17T07:19:32.238Z,91.20
2022-10-17T07:20:32.225Z,91.20
2022-10-17T07:21:35.271Z,91.37
2022-10-17T07:22:33.208Z,91.37
2022-10-17T07:23:32.189Z,90.56
2022-10-17T07:24:32.182Z,90.45
2022-10-17T07:25:34.166Z,91.12
2022-10-17T07:26:32.168Z,90.96
2022-10-17T07:27:32.444Z,90.66
2022-10-17T07:28:32.193Z,90.41
2022-10-17T07:29:37.144Z,90.11
2022-10-17T07:30:32.110Z,89.70
2022-10-17T07:31:32.115Z,89.81
2022-10-17T07:32:32.094Z,89.50
2022-10-17T07:33:32.083Z,89.30
2022-10-17T07:34:32.067Z,88.55
2022-10-17T07:35:32.053Z,89.06
2022-10-17T07:36:32.080Z,89.16
2022-10-17T07:37:32.439Z,88.35
2022-10-17T07:38:32.020Z,88.45
2022-10-17T07:39:32.015Z,88.45
2022-10-17T07:40:37.019Z,88.15
2022-10-17T07:41:31.986Z,88.01
2022-10-17T07:42:32.024Z,88.31
2022-10-17T07:43:31.996Z,88.10
2022-10-17T07:44:31.952Z,88.01
2022-10-17T07:45:31.943Z,87.90
2022-10-17T07:46:31.932Z,87.19
2022-10-17T07:47:32.185Z,87.60
2022-10-17T07:48:31.914Z,87.81
2022-10-17T07:49:31.907Z,87.46
2022-10-17T07:50:31.884Z,87.05
2022-10-17T07:51:37.109Z,86.95
2022-10-17T07:52:32.120Z,87.05
2022-10-17T07:53:31.854Z,87.26
2022-10-17T07:54:31.839Z,87.15
2022-10-17T07:55:31.829Z,86.85
2022-10-17T07:56:31.819Z,86.71
2022-10-17T07:57:31.827Z,86.51
2022-10-17T07:58:31.794Z,86.30
2022-10-17T07:59:31.804Z,86.30
2022-10-17T08:00:31.795Z,86.30
2022-10-17T08:01:31.759Z,86.30
2022-10-17T08:02:36.782Z,85.46
2022-10-17T08:03:31.736Z,85.16
2022-10-17T08:04:31.729Z,85.16
2022-10-17T08:05:31.749Z,85.25
2022-10-17T08:06:31.704Z,85.66
2022-10-17T08:07:31.721Z,85.05
2022-10-17T08:08:31.682Z,85.16
2022-10-17T08:09:31.700Z,84.65
2022-10-17T08:10:31.678Z,84.21
2022-10-17T08:11:31.649Z,84.61
2022-10-17T08:12:32.152Z,84.41
2022-10-17T08:13:36.653Z,84.41
2022-10-17T08:14:31.621Z,84.31
2022-10-17T08:15:32.177Z,84.17
2022-10-17T08:16:31.596Z,84.07
2022-10-17T08:17:31.603Z,83.26
2022-10-17T08:18:31.572Z,83.46
2022-10-17T08:19:31.556Z,83.66
2022-10-17T08:20:31.553Z,82.86
2022-10-17T08:21:31.539Z,82.51
2022-10-17T08:22:31.930Z,82.42
2022-10-17T08:23:31.510Z,81.87
2022-10-17T08:24:36.521Z,81.03
2022-10-17T08:25:31.495Z,79.35
2022-10-17T08:26:31.484Z,78.60
2022-10-17T08:27:31.477Z,77.80
2022-10-17T08:28:31.483Z,78.23
2022-10-17T08:29:31.445Z,77.83
2022-10-17T08:30:31.433Z,77.63
2022-10-17T08:31:31.445Z,77.33
2022-10-17T08:32:31.829Z,77.13
2022-10-17T08:33:31.399Z,78.03
2022-10-17T08:34:31.386Z,77.29
2022-10-17T08:35:36.394Z,77.20
2022-10-17T08:36:31.364Z,77.00
2022-10-17T08:37:31.857Z,75.95
2022-10-17T08:38:35.054Z,76.05
2022-10-17T08:39:31.327Z,75.59
2022-10-17T08:40:31.320Z,75.75
2022-10-17T08:41:31.306Z,75.95
2022-10-17T08:42:31.313Z,75.75
2022-10-17T08:43:35.293Z,75.35
2022-10-17T08:44:31.272Z,74.91
2022-10-17T08:45:31.272Z,74.81
2022-10-17T08:46:36.328Z,74.18
2022-10-17T08:47:31.751Z,74.41
2022-10-17T08:48:31.237Z,74.61
2022-10-17T08:49:31.218Z,74.81
2022-10-17T08:50:31.218Z,75.25
2022-10-17T08:51:31.194Z,75.35
2022-10-17T08:52:31.191Z,76.25
2022-10-17T08:53:31.168Z,75.79
2022-10-17T08:54:31.159Z,75.99
2022-10-17T08:55:31.148Z,76.69
2022-10-17T08:56:44.438Z,75.68
2022-10-17T08:57:37.157Z,75.65
2022-10-17T08:58:31.116Z,75.65
2022-10-17T08:59:31.103Z,75.95
2022-10-17T09:00:31.095Z,76.15
2022-10-17T09:01:31.078Z,75.65
2022-10-17T09:02:31.173Z,75.65
2022-10-17T09:03:31.155Z,75.75
2022-10-17T09:05:31.037Z,76.35
2022-10-17T09:06:31.026Z,76.19
2022-10-17T09:07:31.465Z,76.45
2022-10-17T09:08:36.022Z,75.95
2022-10-17T09:09:30.987Z,76.05
2022-10-17T09:10:30.979Z,75.85
2022-10-17T09:11:30.972Z,76.19
2022-10-17T09:12:31.240Z,75.95
2022-10-17T09:13:31.046Z,76.39
2022-10-17T09:14:30.936Z,76.15
2022-10-17T09:15:30.922Z,76.25
2022-10-17T09:16:30.916Z,75.95
2022-10-17T09:17:31.291Z,75.75
2022-10-17T09:18:30.938Z,76.15
2022-10-17T09:19:35.905Z,75.95
2022-10-17T09:20:30.862Z,76.15
2022-10-17T09:21:30.853Z,75.65
2022-10-17T09:22:30.856Z,76.15
2022-10-17T09:23:30.833Z,76.15
2022-10-17T09:24:30.819Z,76.29
2022-10-17T09:25:30.807Z,76.35
2022-10-17T09:26:30.797Z,76.35
2022-10-17T09:27:31.364Z,76.45
2022-10-17T09:28:30.833Z,76.76
2022-10-17T09:29:36.104Z,76.25
2022-10-17T09:30:45.482Z,75.75
2022-10-17T09:31:31.743Z,75.95
2022-10-17T09:32:31.111Z,76.15
2022-10-17T09:33:53.312Z,76.35
2022-10-17T09:34:31.789Z,75.75
2022-10-17T09:35:30.697Z,75.95
2022-10-17T09:36:30.683Z,76.15
2022-10-17T09:37:30.682Z,76.25
2022-10-17T09:38:30.658Z,76.65
2022-10-17T09:39:30.655Z,77.16
2022-10-17T09:40:30.635Z,76.69
2022-10-17T09:41:51.009Z,76.49
2022-10-17T09:42:32.179Z,76.89
2022-10-17T09:43:30.602Z,76.59
2022-10-17T09:44:30.592Z,76.76
2022-10-17T09:45:30.583Z,76.35
2022-10-17T09:46:30.572Z,76.25
2022-10-17T09:47:30.584Z,76.25
2022-10-17T09:48:30.545Z,76.35
2022-10-17T09:49:30.545Z,76.42
2022-10-17T09:50:30.547Z,75.92
2022-10-17T09:51:30.514Z,75.88
2022-10-17T09:52:35.530Z,74.57
2022-10-17T09:53:30.489Z,74.88
2022-10-17T09:54:30.492Z,74.74
2022-10-17T09:55:30.483Z,74.74
2022-10-17T09:56:30.461Z,74.94
2022-10-17T09:57:30.462Z,75.14
2022-10-17T09:58:30.432Z,75.21
2022-10-17T09:59:30.425Z,74.64
2022-10-17T10:00:30.511Z,75.01
2022-10-17T10:01:30.398Z,74.54
2022-10-17T10:02:30.743Z,74.74
2022-10-17T10:03:35.397Z,74.44
2022-10-17T10:04:41.210Z,74.74
2022-10-17T10:05:31.361Z,74.37
2022-10-17T10:06:30.366Z,75.45
2022-10-17T10:07:30.387Z,75.64
2022-10-17T10:08:30.319Z,75.54
2022-10-17T10:09:30.312Z,75.04
2022-10-17T10:10:30.297Z,74.84
2022-10-17T10:11:30.289Z,74.80
2022-10-17T10:12:30.612Z,73.94
2022-10-17T10:13:30.268Z,73.00
2022-10-17T10:14:35.273Z,72.97
2022-10-17T10:15:30.248Z,72.97
2022-10-17T10:16:30.235Z,72.03
2022-10-17T10:17:30.246Z,72.23
2022-10-17T10:19:30.198Z,71.93
2022-10-17T10:20:30.188Z,72.83
2022-10-17T10:21:30.175Z,72.86
2022-10-17T10:22:30.589Z,72.33
2022-10-17T10:23:30.154Z,73.16
2022-10-17T10:24:31.193Z,73.47
2022-10-17T10:25:35.153Z,73.27
2022-10-17T10:26:30.130Z,73.16
2022-10-17T10:27:30.166Z,73.27
2022-10-17T10:28:30.178Z,73.07
2022-10-17T10:29:30.096Z,73.07
2022-10-17T10:30:30.078Z,73.57
2022-10-17T10:31:30.073Z,73.47
2022-10-17T10:32:30.367Z,72.97
2022-10-17T10:33:30.049Z,72.56
2022-10-17T10:34:30.030Z,71.46
2022-10-17T10:35:30.041Z,72.36
2022-10-17T10:36:35.034Z,72.47
2022-10-17T10:37:30.370Z,72.86
2022-10-17T10:38:30.003Z,72.27
2022-10-17T10:39:29.998Z,71.53
2022-10-17T10:40:29.966Z,72.83
2022-10-17T10:41:29.957Z,72.93
2022-10-17T10:42:29.953Z,72.03
2022-10-17T10:43:29.932Z,72.30
2022-10-17T10:44:29.918Z,71.89
2022-10-17T10:45:46.943Z,71.19
2022-10-17T10:46:30.895Z,71.39
2022-10-17T10:47:34.932Z,73.00
2022-10-17T10:48:29.875Z,71.00
2022-10-17T10:49:29.865Z,72.09
2022-10-17T10:50:29.868Z,71.50
2022-10-17T10:51:29.841Z,71.89
2022-10-17T10:52:29.849Z,71.50
2022-10-17T10:53:32.914Z,71.00
2022-10-17T10:54:30.897Z,71.39
2022-10-17T10:55:29.797Z,72.16
2022-10-17T10:56:29.888Z,71.09
2022-10-17T10:57:30.166Z,71.39
2022-10-17T10:58:36.804Z,71.00
2022-10-17T10:59:29.754Z,71.39
2022-10-17T11:00:29.831Z,71.09
2022-10-17T11:01:29.734Z,71.30
2022-10-17T11:02:29.730Z,71.00
2022-10-17T11:03:29.766Z,71.69
2022-10-17T11:04:29.694Z,72.09
2022-10-17T11:05:29.687Z,72.39
2022-10-17T11:06:29.860Z,72.80
2022-10-17T11:07:30.029Z,72.09
2022-10-17T11:08:29.649Z,70.96
2022-10-17T11:09:34.692Z,72.16
2022-10-17T11:10:29.627Z,72.26
2022-10-17T11:11:29.619Z,71.66
2022-10-17T11:12:29.603Z,71.36
2022-10-17T11:13:29.607Z,71.03
2022-10-17T11:14:29.788Z,70.96
2022-10-17T11:15:29.585Z,71.16
2022-10-17T11:16:29.604Z,70.92
2022-10-17T11:17:29.920Z,71.12
2022-10-17T11:18:29.549Z,71.42
2022-10-17T11:19:29.527Z,71.23
2022-10-17T11:20:34.541Z,71.03
2022-10-17T11:21:29.551Z,70.56
2022-10-17T11:22:29.681Z,71.12
2022-10-17T11:23:29.499Z,71.12
2022-10-17T11:24:29.468Z,70.92
2022-10-17T11:25:29.496Z,71.53
2022-10-17T11:26:29.455Z,70.83
2022-10-17T11:27:29.440Z,71.53
2022-10-17T11:28:29.464Z,70.73
2022-10-17T11:29:29.411Z,71.03
2022-10-17T11:30:29.408Z,71.03
2022-10-17T11:31:34.426Z,70.89
2022-10-17T11:32:29.730Z,71.09
2022-10-17T11:33:29.376Z,71.09
2022-10-17T11:34:29.378Z,70.79
2022-10-17T11:35:29.345Z,70.26
2022-10-17T11:36:29.334Z,69.76
2022-10-17T11:37:29.320Z,69.26
2022-10-17T11:38:29.340Z,69.39
2022-10-17T11:39:29.300Z,69.86
2022-10-17T11:40:29.285Z,69.16
2022-10-17T11:41:29.297Z,69.59
2022-10-17T11:42:34.294Z,69.66
2022-10-17T11:43:29.269Z,69.56
2022-10-17T11:44:29.238Z,69.19
2022-10-17T11:45:29.272Z,70.09
2022-10-17T11:46:29.214Z,70.69
2022-10-17T11:47:29.209Z,69.36
2022-10-17T11:48:29.204Z,70.36
2022-10-17T11:49:29.186Z,70.46
2022-10-17T11:52:55.553Z,69.66
2022-10-17T11:53:35.184Z,69.66
2022-10-17T11:54:29.125Z,68.96
2022-10-17T11:55:29.131Z,69.62
2022-10-17T11:56:29.103Z,69.86
2022-10-17T11:57:29.114Z,69.62
2022-10-17T11:59:29.893Z,70.32
2022-10-17T12:00:29.068Z,69.73
2022-10-17T12:01:29.045Z,69.23
2022-10-17T12:02:29.265Z,69.43
2022-10-17T12:03:29.052Z,69.62
2022-10-17T12:04:34.101Z,68.63
2022-10-17T12:05:29.001Z,68.73
2022-10-17T12:06:29.575Z,68.82
2022-10-17T12:07:29.411Z,68.49
2022-10-17T12:08:30.601Z,68.49
2022-10-17T12:09:28.956Z,68.49
2022-10-17T12:10:28.939Z,66.86
2022-10-17T12:11:28.949Z,67.26
2022-10-17T12:12:29.194Z,66.66
2022-10-17T12:13:28.938Z,66.63
2022-10-17T12:14:28.896Z,66.96
2022-10-17T12:15:33.907Z,66.73
2022-10-17T12:16:28.947Z,66.24
2022-10-17T12:17:29.115Z,67.36
2022-10-17T12:18:28.860Z,66.77
2022-10-17T12:19:28.849Z,66.47
2022-10-17T12:20:28.831Z,66.47
2022-10-17T12:21:31.459Z,66.77
2022-10-17T12:22:28.806Z,66.27
2022-10-17T12:23:28.814Z,67.07
2022-10-17T12:24:28.782Z,66.96
2022-10-17T12:25:28.896Z,66.63
2022-10-17T12:26:34.488Z,66.83
2022-10-17T12:27:29.070Z,66.43
2022-10-17T12:28:28.801Z,66.30
2022-10-17T12:29:28.747Z,66.40
2022-10-17T12:30:28.714Z,65.37
2022-10-17T12:31:33.950Z,65.05
2022-10-17T12:32:36.848Z,65.54
2022-10-17T12:33:29.693Z,64.15
2022-10-17T12:34:28.669Z,64.04
2022-10-17T12:35:28.664Z,64.04
2022-10-17T12:36:28.646Z,64.07
2022-10-17T12:37:33.661Z,63.75
2022-10-17T12:38:28.644Z,64.37
2022-10-17T12:39:28.614Z,64.94
2022-10-17T12:40:28.619Z,64.58
2022-10-17T12:41:28.593Z,64.18
2022-10-17T12:42:28.858Z,64.54
2022-10-17T12:43:28.586Z,63.65
2022-10-17T12:44:29.420Z,62.69
2022-10-17T12:45:28.568Z,62.29
2022-10-17T12:46:28.535Z,61.96
2022-10-17T12:47:28.829Z,63.39
2022-10-17T12:48:33.545Z,62.72
2022-10-17T12:49:28.503Z,63.55
2022-10-17T12:50:28.494Z,63.35
2022-10-17T12:51:35.698Z,64.25
2022-10-17T12:52:29.469Z,64.25
2022-10-17T12:53:28.471Z,64.48
2022-10-17T12:54:29.737Z,63.98
2022-10-17T12:55:29.448Z,63.98
2022-10-17T12:56:28.424Z,64.97
2022-10-17T12:57:28.774Z,64.97
2022-10-17T12:58:28.410Z,65.57
2022-10-17T12:59:33.415Z,65.57
2022-10-17T13:00:28.499Z,64.97
2022-10-17T13:01:28.461Z,65.01
2022-10-17T13:02:28.367Z,65.31
2022-10-17T13:03:28.356Z,65.37
2022-10-17T13:04:28.332Z,65.20
2022-10-17T13:05:28.323Z,65.97
2022-10-17T13:06:28.311Z,65.31
2022-10-17T13:07:28.501Z,65.08
2022-10-17T13:08:28.298Z,64.48
2022-10-17T13:09:28.277Z,64.97
2022-10-17T13:10:33.295Z,64.78
2022-10-17T13:11:28.260Z,64.58
2022-10-17T13:12:28.700Z,64.07
2022-10-17T13:13:28.242Z,64.07
2022-10-17T13:14:28.220Z,64.48
2022-10-17T13:15:28.223Z,65.08
2022-10-17T13:16:28.200Z,64.37
2022-10-17T13:17:28.293Z,64.58
2022-10-17T13:18:28.185Z,64.58
2022-10-17T13:19:28.214Z,63.98
2022-10-17T13:20:30.573Z,64.07
2022-10-17T13:21:33.166Z,64.07
2022-10-17T13:22:28.725Z,64.28
2022-10-17T13:23:28.131Z,65.08
2022-10-17T13:24:28.110Z,65.37
2022-10-17T13:25:28.100Z,64.67
2022-10-17T13:26:28.087Z,64.07
2022-10-17T13:27:28.074Z,64.48
2022-10-17T13:28:28.150Z,63.98
2022-10-17T13:29:28.053Z,64.37
2022-10-17T13:30:31.121Z,64.58
2022-10-17T13:31:28.032Z,64.37
2022-10-17T13:32:33.059Z,63.58
2022-10-17T13:33:28.016Z,63.78
2022-10-17T13:34:27.996Z,63.58
2022-10-17T13:35:48.567Z,63.38
2022-10-17T13:36:28.981Z,64.58
2022-10-17T13:37:27.962Z,63.88
2022-10-17T13:38:27.965Z,64.37
2022-10-17T13:39:44.787Z,64.58
2022-10-17T13:41:37.013Z,64.67
2022-10-17T13:42:29.358Z,64.07
2022-10-17T13:43:32.937Z,64.87
2022-10-17T13:44:27.888Z,65.17
2022-10-17T13:45:27.898Z,64.37
2022-10-17T13:46:37.271Z,64.45
2022-10-17T13:47:28.856Z,64.45
2022-10-17T13:48:27.883Z,64.75
2022-10-17T13:49:28.269Z,65.08
2022-10-17T13:50:43.503Z,65.27
2022-10-17T13:51:28.803Z,64.07
2022-10-17T13:52:28.332Z,63.95
2022-10-17T13:53:27.792Z,63.95
2022-10-17T13:54:32.800Z,63.75
2022-10-17T13:55:27.770Z,64.15
2022-10-17T13:56:29.508Z,64.04
2022-10-17T13:57:28.028Z,63.95
2022-10-17T13:58:27.737Z,63.75
2022-10-17T13:59:27.713Z,63.95
2022-10-17T14:00:27.742Z,63.95
2022-10-17T14:01:27.694Z,64.94
2022-10-17T14:02:27.683Z,65.14
2022-10-17T14:03:35.668Z,65.05
2022-10-17T14:04:36.123Z,64.84
2022-10-17T14:05:33.669Z,65.34
2022-10-17T14:06:27.640Z,64.64
2022-10-17T14:07:29.376Z,65.08
2022-10-17T14:08:27.624Z,65.44
2022-10-17T14:09:27.607Z,65.05
2022-10-17T14:10:27.594Z,65.17
2022-10-17T14:11:27.583Z,65.84
2022-10-17T14:12:27.569Z,65.57
2022-10-17T14:13:27.577Z,65.47
2022-10-17T14:14:27.548Z,65.27
2022-10-17T14:15:27.532Z,65.27
2022-10-17T14:16:32.546Z,65.67
2022-10-17T14:17:27.839Z,64.64
2022-10-17T14:18:30.876Z,65.77
2022-10-17T14:19:28.486Z,65.17
2022-10-17T14:20:57.429Z,64.48
2022-10-17T14:21:40.909Z,65.47
2022-10-17T14:22:28.455Z,65.87
2022-10-17T14:23:27.456Z,65.67
2022-10-17T14:24:27.432Z,65.47
2022-10-17T14:25:27.428Z,66.27
2022-10-17T14:26:27.411Z,66.27
2022-10-17T14:27:32.831Z,65.87
2022-10-17T14:28:27.446Z,67.00
2022-10-17T14:29:27.377Z,66.20
2022-10-17T14:30:51.733Z,66.70
2022-10-17T14:31:28.357Z,66.70
2022-10-17T14:32:27.386Z,67.50
2022-10-17T14:33:27.329Z,66.90
2022-10-17T14:34:27.336Z,67.40
2022-10-17T14:35:42.490Z,67.20
2022-10-17T14:36:28.329Z,66.70
2022-10-17T14:37:27.751Z,67.10
2022-10-17T14:38:32.318Z,66.60
2022-10-17T14:39:27.264Z,67.60
2022-10-17T14:40:27.252Z,67.20
2022-10-17T14:41:43.729Z,66.93
2022-10-17T14:42:28.229Z,68.33
2022-10-17T14:43:27.217Z,67.83
2022-10-17T14:44:27.227Z,67.73
2022-10-17T14:45:27.202Z,67.40
2022-10-17T14:46:27.185Z,67.63
2022-10-17T14:47:44.192Z,67.60
2022-10-17T14:48:28.164Z,68.00
2022-10-17T14:49:32.181Z,67.73
2022-10-17T14:50:27.141Z,67.40
2022-10-17T14:51:30.090Z,66.80
2022-10-17T14:52:28.138Z,67.80
2022-10-17T14:53:27.106Z,68.30
2022-10-17T14:54:27.108Z,68.49
2022-10-17T14:55:27.086Z,68.33
2022-10-17T14:56:27.076Z,68.63
2022-10-17T14:57:27.061Z,69.02
2022-10-17T14:58:27.052Z,68.73
2022-10-17T14:59:53.683Z,68.83
2022-10-17T15:00:33.056Z,69.26
2022-10-17T15:01:27.015Z,69.26
2022-10-17T15:02:27.294Z,69.82
2022-10-17T15:03:27.048Z,69.46
2022-10-17T15:04:26.995Z,69.53
2022-10-17T15:05:26.970Z,69.46
2022-10-17T15:06:26.960Z,69.56
2022-10-17T15:07:26.949Z,69.56
2022-10-17T15:08:26.958Z,69.46
2022-10-17T15:09:26.935Z,70.46
2022-10-17T15:10:26.914Z,70.86
2022-10-17T15:11:31.926Z,70.26
2022-10-17T15:12:27.081Z,70.65
2022-10-17T15:13:28.531Z,70.26
2022-10-17T15:14:26.884Z,70.76
2022-10-17T15:15:26.857Z,70.46
2022-10-17T15:16:26.847Z,70.46
2022-10-17T15:17:26.837Z,70.76
2022-10-17T15:18:26.831Z,70.49
2022-10-17T15:19:26.818Z,70.59
2022-10-17T15:20:26.819Z,70.56
2022-10-17T15:21:39.309Z,70.49
2022-10-17T15:22:33.196Z,70.49
2022-10-17T15:23:26.767Z,70.89
2022-10-17T15:24:26.778Z,70.69
2022-10-17T15:25:26.754Z,70.89
2022-10-17T15:26:26.737Z,71.19
2022-10-17T15:27:26.732Z,71.19
2022-10-17T15:28:26.740Z,70.76
2022-10-17T15:29:26.700Z,70.79
2022-10-17T15:30:26.700Z,70.99
2022-10-17T15:31:26.685Z,71.69
2022-10-17T15:32:26.670Z,71.99
2022-10-17T15:33:31.680Z,71.99
2022-10-17T15:34:26.666Z,71.89
2022-10-17T15:35:26.772Z,71.59
2022-10-17T15:36:26.631Z,71.89
2022-10-17T15:37:26.609Z,71.79
2022-10-17T15:38:26.610Z,71.49
2022-10-17T15:39:26.596Z,71.36
2022-10-17T15:40:26.633Z,71.26
2022-10-17T15:41:26.570Z,70.65
2022-10-17T15:42:26.558Z,70.76
2022-10-17T15:43:26.542Z,71.06
2022-10-17T15:44:31.555Z,71.06
2022-10-17T15:45:26.539Z,71.06
2022-10-17T15:46:26.536Z,70.95
2022-10-17T15:47:26.608Z,70.95
2022-10-17T15:48:26.488Z,70.76
2022-10-17T15:49:26.476Z,71.06
2022-10-17T15:50:26.481Z,70.86
2022-10-17T15:51:26.464Z,70.99
2022-10-17T15:52:26.444Z,70.79
2022-10-17T15:53:26.439Z,70.79
2022-10-17T15:54:26.423Z,71.29
2022-10-17T15:55:31.459Z,70.79
2022-10-17T15:56:26.397Z,71.49
2022-10-17T15:57:26.386Z,72.19
2022-10-17T15:58:26.375Z,71.79
2022-10-17T15:59:26.369Z,72.69
2022-10-17T16:00:26.417Z,72.62
2022-10-17T16:01:26.345Z,72.02
2022-10-17T16:02:26.336Z,72.72
2022-10-17T16:03:26.320Z,73.02
2022-10-17T16:04:26.342Z,73.12
2022-10-17T16:05:26.309Z,72.62
2022-10-17T16:06:31.308Z,73.12
2022-10-17T16:07:26.311Z,72.42
2022-10-17T16:08:26.264Z,73.56
2022-10-17T16:09:26.251Z,72.62
2022-10-17T16:10:26.258Z,73.72
2022-10-17T16:11:26.253Z,73.46
2022-10-17T16:12:26.223Z,73.36
2022-10-17T16:13:26.207Z,73.56
2022-10-17T16:14:26.196Z,74.16
2022-10-17T16:15:26.197Z,74.16
2022-10-17T16:16:26.178Z,74.36
2022-10-17T16:17:31.449Z,74.66
2022-10-17T16:18:26.155Z,74.85
2022-10-17T16:19:26.140Z,74.46
2022-10-17T16:20:26.139Z,74.36
2022-10-17T16:21:26.167Z,74.26
2022-10-17T16:22:26.107Z,74.16
2022-10-17T16:23:26.094Z,74.36
2022-10-17T16:24:26.082Z,74.16
2022-10-17T16:25:26.081Z,75.46
2022-10-17T16:26:26.064Z,75.35
2022-10-17T16:27:26.074Z,75.49
2022-10-17T16:28:31.109Z,75.49
2022-10-17T16:29:26.029Z,75.39
2022-10-17T16:30:26.037Z,75.79
2022-10-17T16:31:26.007Z,75.59
2022-10-17T16:32:25.997Z,75.59
2022-10-17T16:33:25.980Z,75.89
2022-10-17T16:34:25.973Z,75.99
2022-10-17T16:35:25.982Z,76.19
2022-10-17T16:36:25.952Z,76.19
2022-10-17T16:37:25.935Z,76.59
2022-10-17T16:38:25.940Z,76.19
2022-10-17T16:39:30.946Z,75.99
2022-10-17T16:40:26.008Z,76.49
2022-10-17T16:41:25.890Z,76.93
2022-10-17T16:42:25.884Z,77.23
2022-10-17T16:43:25.890Z,76.43
2022-10-17T16:44:25.855Z,77.03
2022-10-17T16:45:25.856Z,77.33
2022-10-17T16:46:25.839Z,76.93
2022-10-17T16:47:25.842Z,77.03
2022-10-17T16:48:29.641Z,76.83
2022-10-17T16:49:25.818Z,77.63
2022-10-17T16:50:30.819Z,77.93
2022-10-17T16:51:25.808Z,77.63
2022-10-17T16:52:25.767Z,77.47
2022-10-17T16:53:25.768Z,78.17
2022-10-17T16:54:25.743Z,77.76
2022-10-17T16:55:25.740Z,77.86
2022-10-17T16:56:25.717Z,78.36
2022-10-17T16:57:25.703Z,78.36
2022-10-17T16:58:25.709Z,77.76
2022-10-17T16:59:25.702Z,77.60